Brizo — WDF9201 — position and weather

sailwx.info

Track history (hours):
 
Tides and Currents Weather Stations Pressure Air Temp Water Temp Dewpoint Dewpoint Depression Visibility Wind Speed Wind Dir Waves Ship Positions

Brizo

Owner: Squadron Marine Ltd, Westlake, OH. More information available from US FCC via Universal Licensing System and Coast Guard Vessel Documentation Center.

Last reported at 2017-Sep-19 13:01 UTC. Time now 2017-Oct-17 12:56 UTC.
Position N 39°12' W 076°16'.
Warning: this ship's position is 27 days out of date.

Length 16 m.

Type: Sailing vessel. MMSI: 367502720.

Date/timePositionNaut miles runAvg speedWind from/ knotsBaromVisibWave heightAir tempDewpointWater temp
2017-Sep-19 13:01N 39°12' W 076°16'0 7.1
2017-Sep-19 12:59N 39°12' W 076°16'3 6.9
2017-Sep-19 12:30N 39°15' W 076°14'3 6.1
2017-Sep-19 12:00N 39°18' W 076°13'3 5.5
2017-Sep-19 11:30N 39°20' W 076°11'3 5.7
2017-Sep-19 11:00N 39°22' W 076°08'0 0.0
2017-Sep-18 18:32N 39°22' W 076°07'0 0.1
2017-Sep-18 18:21N 39°22' W 076°07'2 5.6
2017-Sep-18 18:00N 39°23' W 076°05'4 7.2
2017-Sep-18 17:30N 39°25' W 076°01'4 7.4
2017-Sep-18 17:00N 39°28' W 075°58'4 7.5
2017-Sep-18 16:30N 39°30' W 075°55'4 7.6
2017-Sep-18 16:00N 39°32' W 075°50'4 7.7
2017-Sep-18 15:30N 39°32' W 075°45'4 7.4
2017-Sep-18 15:00N 39°33' W 075°40'3 6.5
2017-Sep-18 14:30N 39°33' W 075°36'3 5.2
2017-Sep-18 14:00N 39°33' W 075°33'4 7.1
2017-Sep-18 13:30N 39°29' W 075°34'4 7.6
2017-Sep-18 13:00N 39°26' W 075°32'5 9.1
2017-Sep-18 12:30N 39°22' W 075°28'4 8.7
2017-Sep-18 12:00N 39°19' W 075°24'4 8.6
2017-Sep-18 11:29N 39°16' W 075°20'4 7.7
2017-Sep-18 11:00N 39°13' W 075°17'4 7.0
2017-Sep-18 10:30N 39°10' W 075°15'4 7.1
2017-Sep-18 10:00N 39°07' W 075°12'54 4.1
2017-Sep-17 20:58N 39°32' W 074°10'3 6.6
2017-Sep-17 20:30N 39°34' W 074°08'3 6.4
2017-Sep-17 20:00N 39°37' W 074°06'3 6.2
2017-Sep-17 19:30N 39°40' W 074°05'3 6.1
2017-Sep-17 18:56N 39°43' W 074°02'3 6.1
2017-Sep-17 18:30N 39°45' W 074°01'3 6.3
2017-Sep-17 18:00N 39°48' W 074°00'38 1.6
2017-Sep-16 17:45N 40°27' W 074°01'3 6.2
2017-Sep-16 17:17N 40°29' W 074°03'2 6.8
2017-Sep-16 16:56N 40°32' W 074°03'3 7.2
2017-Sep-16 16:30N 40°35' W 074°02'4 7.4
2017-Sep-16 16:00N 40°38' W 074°03'4 7.1
2017-Sep-16 15:30N 40°42' W 074°01'4 7.6
2017-Sep-16 15:00N 40°45' W 073°58'64 3.9
2017-Sep-15 22:49N 41°07' W 072°39'2 7.6
2017-Sep-15 22:30N 41°08' W 072°36'4 8.7
2017-Sep-15 22:00N 41°09' W 072°31'4 8.9
2017-Sep-15 21:30N 41°10' W 072°25'  
Track history (hours):
 
Tides and Currents Weather Stations Pressure Air Temp Water Temp Dewpoint Dewpoint Depression Visibility Wind Speed Wind Dir Waves Ship Positions

Brizo

Owner: Squadron Marine Ltd, Westlake, OH. More information available from US FCC via Universal Licensing System and Coast Guard Vessel Documentation Center.

Last reported at 2017-Sep-19 13:01 UTC. Time now 2017-Oct-17 12:56 UTC.
Position N 39°12' W 076°16'.
Warning: this ship's position is 27 days out of date.

Length 16 m.

Type: Sailing vessel. MMSI: 367502720.

Date/timePositionNaut miles runAvg speedWind from/ knotsBaromVisibWave heightAir tempDewpointWater temp
2017-Sep-19 13:01N 39°12' W 076°16'0 7.1
2017-Sep-19 12:59N 39°12' W 076°16'3 6.9
2017-Sep-19 12:30N 39°15' W 076°14'3 6.1
2017-Sep-19 12:00N 39°18' W 076°13'3 5.5
2017-Sep-19 11:30N 39°20' W 076°11'3 5.7
2017-Sep-19 11:00N 39°22' W 076°08'0 0.0
2017-Sep-18 18:32N 39°22' W 076°07'0 0.1
2017-Sep-18 18:21N 39°22' W 076°07'2 5.6
2017-Sep-18 18:00N 39°23' W 076°05'4 7.2
2017-Sep-18 17:30N 39°25' W 076°01'4 7.4
2017-Sep-18 17:00N 39°28' W 075°58'4 7.5
2017-Sep-18 16:30N 39°30' W 075°55'4 7.6
2017-Sep-18 16:00N 39°32' W 075°50'4 7.7
2017-Sep-18 15:30N 39°32' W 075°45'4 7.4
2017-Sep-18 15:00N 39°33' W 075°40'3 6.5
2017-Sep-18 14:30N 39°33' W 075°36'3 5.2
2017-Sep-18 14:00N 39°33' W 075°33'4 7.1
2017-Sep-18 13:30N 39°29' W 075°34'4 7.6
2017-Sep-18 13:00N 39°26' W 075°32'5 9.1
2017-Sep-18 12:30N 39°22' W 075°28'4 8.7
2017-Sep-18 12:00N 39°19' W 075°24'4 8.6
2017-Sep-18 11:29N 39°16' W 075°20'4 7.7
2017-Sep-18 11:00N 39°13' W 075°17'4 7.0
2017-Sep-18 10:30N 39°10' W 075°15'4 7.1
2017-Sep-18 10:00N 39°07' W 075°12'54 4.1
2017-Sep-17 20:58N 39°32' W 074°10'3 6.6
2017-Sep-17 20:30N 39°34' W 074°08'3 6.4
2017-Sep-17 20:00N 39°37' W 074°06'3 6.2
2017-Sep-17 19:30N 39°40' W 074°05'3 6.1
2017-Sep-17 18:56N 39°43' W 074°02'3 6.1
2017-Sep-17 18:30N 39°45' W 074°01'3 6.3
2017-Sep-17 18:00N 39°48' W 074°00'38 1.6
2017-Sep-16 17:45N 40°27' W 074°01'3 6.2
2017-Sep-16 17:17N 40°29' W 074°03'2 6.8
2017-Sep-16 16:56N 40°32' W 074°03'3 7.2
2017-Sep-16 16:30N 40°35' W 074°02'4 7.4
2017-Sep-16 16:00N 40°38' W 074°03'4 7.1
2017-Sep-16 15:30N 40°42' W 074°01'4 7.6
2017-Sep-16 15:00N 40°45' W 073°58'64 3.9
2017-Sep-15 22:49N 41°07' W 072°39'2 7.6
2017-Sep-15 22:30N 41°08' W 072°36'4 8.7
2017-Sep-15 22:00N 41°09' W 072°31'4 8.9
2017-Sep-15 21:30N 41°10' W 072°25'  

Dump ship's entire track history